createdAt,value
2023-04-12T00:03:04.738Z,35.05
2023-04-12T00:06:11.485Z,43.95
2023-04-12T00:09:17.024Z,41.53
2023-04-12T00:12:20.740Z,35.95
2023-04-12T00:15:23.978Z,39.60
2023-04-12T00:18:27.415Z,38.33
2023-04-12T00:21:30.696Z,37.28
2023-04-12T00:24:35.248Z,44.53
2023-04-12T00:27:39.094Z,40.08
2023-04-12T00:30:42.374Z,38.40
2023-04-12T00:33:46.049Z,47.03
2023-04-12T00:36:49.695Z,42.63
2023-04-12T00:39:54.346Z,43.80
2023-04-12T00:42:57.787Z,43.25
2023-04-12T00:46:03.393Z,49.83
2023-04-12T00:49:07.248Z,50.53
2023-04-12T00:52:12.204Z,46.20
2023-04-12T00:55:17.132Z,51.70
2023-04-12T00:58:22.922Z,49.70
2023-04-12T01:01:28.020Z,48.78
2023-04-12T01:04:31.325Z,45.28
2023-04-12T01:07:51.610Z,47.47
2023-04-12T01:14:08.182Z,51.45
2023-04-12T01:17:17.274Z,56.08
2023-04-12T01:20:24.631Z,49.40
2023-04-12T01:23:49.024Z,48.42
2023-04-12T01:26:57.759Z,49.92
2023-04-12T01:30:04.196Z,46.53
2023-04-12T01:33:09.242Z,51.20
2023-04-12T01:36:17.705Z,50.05
2023-04-12T01:39:21.821Z,50.33
2023-04-12T01:42:25.964Z,48.60
2023-04-12T01:45:31.101Z,43.38
2023-04-12T01:48:34.471Z,51.83
2023-04-12T01:51:46.850Z,49.38
2023-04-12T01:54:54.740Z,48.53
2023-04-12T01:57:58.874Z,50.75
2023-04-12T02:01:05.701Z,51.53
2023-04-12T02:04:10.708Z,52.65
2023-04-12T02:07:15.298Z,54.25
2023-04-12T02:10:28.538Z,53.88
2023-04-12T02:13:31.760Z,54.70
2023-04-12T02:16:36.413Z,53.67
2023-04-12T02:19:41.017Z,54.78
2023-04-12T02:22:44.316Z,51.53
2023-04-12T02:25:47.765Z,61.25
2023-04-12T02:28:53.484Z,60.83
2023-04-12T02:31:58.587Z,59.50
2023-04-12T02:35:03.660Z,60.80
2023-04-12T02:38:08.163Z,65.93
2023-04-12T02:41:18.694Z,66.03
2023-04-12T02:44:21.910Z,61.75
2023-04-12T02:47:45.568Z,64.55
2023-04-12T02:50:49.590Z,64.15
2023-04-12T02:53:56.831Z,63.75
2023-04-12T02:57:03.797Z,66.07
2023-04-12T03:00:19.486Z,64.45
2023-04-12T03:03:26.752Z,63.05
2023-04-12T03:06:34.786Z,66.78
2023-04-12T03:09:42.571Z,76.50
2023-04-12T03:12:46.065Z,71.22
2023-04-12T03:15:57.177Z,68.07
2023-04-12T03:19:08.760Z,72.35
2023-04-12T03:22:12.355Z,68.40
2023-04-12T03:25:20.035Z,72.32
2023-04-12T03:31:34.871Z,67.80
2023-04-12T03:34:43.409Z,76.00
2023-04-12T03:37:49.692Z,72.63
2023-04-12T03:40:53.148Z,84.20
2023-04-12T03:44:03.722Z,71.25
2023-04-12T03:47:09.634Z,68.72
2023-04-12T03:50:14.498Z,74.32
2023-04-12T03:53:23.840Z,72.07
2023-04-12T03:56:27.269Z,69.75
2023-04-12T03:59:32.875Z,71.57
2023-04-12T04:02:37.412Z,75.68
2023-04-12T04:05:46.106Z,72.30
2023-04-12T04:08:50.396Z,72.45
2023-04-12T04:11:53.968Z,72.15
2023-04-12T04:15:01.097Z,70.82
2023-04-12T04:18:07.352Z,74.47
2023-04-12T04:21:12.207Z,71.15
2023-04-12T04:24:18.827Z,66.93
2023-04-12T04:27:25.205Z,64.95
2023-04-12T04:30:34.463Z,67.80
2023-04-12T04:33:40.136Z,65.80
2023-04-12T04:36:49.170Z,64.18
2023-04-12T04:39:59.480Z,64.40
2023-04-12T04:43:03.048Z,61.83
2023-04-12T04:46:12.001Z,61.22
2023-04-12T04:49:15.621Z,58.97
2023-04-12T04:52:20.451Z,57.42
2023-04-12T04:55:30.043Z,62.10
2023-04-12T04:58:34.487Z,59.35
2023-04-12T05:01:38.298Z,62.67
2023-04-12T05:04:42.143Z,63.45
2023-04-12T05:07:49.782Z,70.68
2023-04-12T05:10:53.633Z,74.63
2023-04-12T05:13:59.015Z,72.00
2023-04-12T05:17:02.559Z,74.35
2023-04-12T05:20:07.748Z,85.35
2023-04-12T05:23:12.856Z,89.65
2023-04-12T05:26:16.111Z,84.47
2023-04-12T05:29:23.997Z,88.68
2023-04-12T05:32:28.039Z,77.32
2023-04-12T05:35:32.504Z,81.13
2023-04-12T05:38:37.889Z,79.20
2023-04-12T05:41:47.195Z,76.20
2023-04-12T05:44:50.895Z,75.70
2023-04-12T05:47:57.334Z,74.75
2023-04-12T05:51:01.188Z,79.93
2023-04-12T05:54:09.159Z,79.82
2023-04-12T05:57:13.978Z,78.90
2023-04-12T06:00:18.722Z,81.35
2023-04-12T06:03:23.870Z,79.95
2023-04-12T06:06:30.175Z,83.57
2023-04-12T06:09:35.551Z,84.47
2023-04-12T06:12:39.181Z,80.75
2023-04-12T06:15:42.634Z,77.57
2023-04-12T06:18:46.336Z,76.10
2023-04-12T06:21:49.589Z,86.57
2023-04-12T06:24:54.434Z,100.72
2023-04-12T06:28:00.089Z,97.18
2023-04-12T06:31:04.146Z,91.38
2023-04-12T06:34:11.932Z,95.47
2023-04-12T06:37:16.076Z,89.50
2023-04-12T06:40:20.916Z,81.75
2023-04-12T06:43:24.289Z,81.15
2023-04-12T06:46:28.521Z,78.57
2023-04-12T06:49:32.078Z,77.35
2023-04-12T06:52:35.432Z,71.78
2023-04-12T06:55:40.175Z,74.03
2023-04-12T06:58:43.535Z,71.13
2023-04-12T07:01:46.889Z,70.68
2023-04-12T07:04:54.035Z,75.70
2023-04-12T07:07:57.193Z,73.72
2023-04-12T07:11:14.475Z,76.95
2023-04-12T07:14:23.300Z,77.35
2023-04-12T07:17:27.532Z,79.50
2023-04-12T07:20:30.835Z,69.97
2023-04-12T07:23:34.278Z,70.63
2023-04-12T07:26:38.969Z,74.80
2023-04-12T07:29:42.278Z,72.35
2023-04-12T07:32:46.329Z,60.55
2023-04-12T07:35:49.709Z,62.85
2023-04-12T07:38:55.663Z,67.95
2023-04-12T07:42:50.315Z,59.83
2023-04-12T07:45:56.029Z,59.95
2023-04-12T07:48:59.479Z,65.97
2023-04-12T07:52:02.920Z,63.05
2023-04-12T07:55:06.614Z,65.50
2023-04-12T07:58:09.804Z,71.78
2023-04-12T08:01:16.941Z,70.07
2023-04-12T08:04:20.634Z,68.10
2023-04-12T08:07:24.127Z,66.97
2023-04-12T08:10:27.506Z,63.55
2023-04-12T08:13:30.713Z,62.00
2023-04-12T08:16:35.315Z,65.80
2023-04-12T08:19:38.647Z,62.97
2023-04-12T08:22:41.946Z,68.63
2023-04-12T08:25:45.190Z,60.33
2023-04-12T08:28:48.638Z,61.80
2023-04-12T08:31:53.853Z,66.80
2023-04-12T08:34:57.217Z,62.08
2023-04-12T08:38:06.894Z,66.95
2023-04-12T08:41:10.206Z,73.27
2023-04-12T08:44:13.618Z,65.25
2023-04-12T08:47:18.413Z,65.30
2023-04-12T08:50:22.881Z,68.55
2023-04-12T08:53:26.388Z,70.63
2023-04-12T08:56:31.125Z,61.42
2023-04-12T08:59:37.972Z,63.03
2023-04-12T09:02:46.304Z,63.35
2023-04-12T09:05:49.702Z,66.05
2023-04-12T09:08:55.149Z,64.10
2023-04-12T09:12:10.202Z,68.35
2023-04-12T09:15:17.773Z,69.97
2023-04-12T09:18:23.224Z,64.60
2023-04-12T09:21:27.284Z,67.30
2023-04-12T09:24:31.497Z,65.43
2023-04-12T09:27:48.249Z,62.35
2023-04-12T09:30:53.154Z,64.15
2023-04-12T09:34:09.192Z,62.22
2023-04-12T09:37:16.749Z,59.45
2023-04-12T09:40:26.995Z,62.20
2023-04-12T09:43:39.423Z,59.15
2023-04-12T09:46:53.061Z,66.03
2023-04-12T09:49:58.021Z,72.18
2023-04-12T09:53:02.296Z,67.75
2023-04-12T09:56:08.377Z,64.60
2023-04-12T09:59:14.301Z,66.47
2023-04-12T10:02:19.423Z,63.58
2023-04-12T10:05:26.985Z,61.50
2023-04-12T10:08:31.656Z,64.95
2023-04-12T10:11:35.814Z,63.78
2023-04-12T10:14:40.054Z,64.00
2023-04-12T10:17:45.363Z,64.00
2023-04-12T10:20:50.204Z,58.72
2023-04-12T10:23:56.313Z,53.15
2023-04-12T10:27:02.875Z,60.42
2023-04-12T10:30:23.434Z,51.67
2023-04-12T10:33:28.592Z,50.85
2023-04-12T10:36:56.051Z,57.10
2023-04-12T10:39:59.367Z,52.90
2023-04-12T10:43:28.082Z,61.55
2023-04-12T10:46:53.432Z,56.20
2023-04-12T10:50:22.006Z,51.35
2023-04-12T10:53:26.737Z,49.53
2023-04-12T10:56:40.590Z,49.92
2023-04-12T10:59:54.337Z,52.75
2023-04-12T11:03:12.715Z,54.28
2023-04-12T11:06:26.891Z,49.97
2023-04-12T11:09:51.852Z,46.70
2023-04-12T11:13:08.911Z,40.80
2023-04-12T11:16:14.025Z,48.08
2023-04-12T11:19:18.711Z,45.90
2023-04-12T11:22:23.816Z,39.92
2023-04-12T11:25:30.143Z,41.63
2023-04-12T11:28:35.370Z,43.53
2023-04-12T11:31:39.963Z,49.30
2023-04-12T11:34:46.506Z,41.03
2023-04-12T11:37:50.008Z,42.08
2023-04-12T11:40:54.698Z,41.80
2023-04-12T11:43:57.954Z,42.40
2023-04-12T11:47:02.330Z,41.75
2023-04-12T11:50:06.579Z,37.65
2023-04-12T11:53:13.377Z,41.05
2023-04-12T11:56:18.186Z,36.17
2023-04-12T11:59:21.518Z,37.53
2023-04-12T12:02:27.088Z,38.33
2023-04-12T12:05:36.733Z,34.60
2023-04-12T12:08:41.024Z,39.47
2023-04-12T12:11:45.798Z,41.25
2023-04-12T12:14:49.120Z,39.85
2023-04-12T12:17:52.906Z,38.67
2023-04-12T12:20:56.552Z,36.38
2023-04-12T12:24:00.088Z,33.33
2023-04-12T12:27:05.368Z,31.75
2023-04-12T12:30:12.252Z,33.17
2023-04-12T12:33:21.877Z,38.08
2023-04-12T12:36:33.930Z,36.60
2023-04-12T12:39:37.478Z,41.30
2023-04-12T12:42:50.145Z,43.22
2023-04-12T12:45:53.422Z,41.30
2023-04-12T12:48:57.314Z,45.38
2023-04-12T12:52:01.173Z,45.78
2023-04-12T12:55:04.793Z,50.53
2023-04-12T12:58:09.400Z,49.80
2023-04-12T13:01:12.785Z,46.67
2023-04-12T13:04:16.219Z,51.60
2023-04-12T13:07:19.661Z,48.10
2023-04-12T13:10:23.523Z,54.78
2023-04-12T13:13:28.450Z,53.33
2023-04-12T13:16:31.737Z,50.03
2023-04-12T13:19:35.007Z,47.17
2023-04-12T13:22:38.298Z,46.45
2023-04-12T13:25:41.614Z,50.30
2023-04-12T13:28:46.634Z,47.95
2023-04-12T13:31:50.270Z,47.88
2023-04-12T13:34:54.058Z,48.45
2023-04-12T13:37:57.553Z,51.00
2023-04-12T13:41:00.850Z,47.50
2023-04-12T13:44:05.780Z,48.10
2023-04-12T13:47:09.187Z,50.65
2023-04-12T13:50:12.652Z,47.30
2023-04-12T13:53:15.880Z,46.17
2023-04-12T13:56:19.716Z,48.80
2023-04-12T13:59:24.686Z,47.28
2023-04-12T14:02:29.365Z,44.30
2023-04-12T14:05:34.547Z,46.95
2023-04-12T14:08:37.871Z,52.67
2023-04-12T14:11:48.217Z,49.13
2023-04-12T14:17:56.974Z,45.17
2023-04-12T14:21:00.383Z,46.97
2023-04-12T14:24:04.083Z,46.72
2023-04-12T14:27:08.602Z,45.55
2023-04-12T14:30:13.896Z,48.72
2023-04-12T14:33:17.677Z,45.60
2023-04-12T14:36:21.144Z,56.65
2023-04-12T14:39:26.088Z,62.13
2023-04-12T14:42:29.293Z,61.53
2023-04-12T14:45:34.195Z,72.13
2023-04-12T14:48:37.478Z,71.10
2023-04-12T14:51:40.699Z,53.47
2023-04-12T14:54:44.012Z,53.35
2023-04-12T14:57:47.184Z,53.05
2023-04-12T15:00:51.850Z,48.17
2023-04-12T15:03:55.563Z,51.80
2023-04-12T15:06:58.948Z,42.13
2023-04-12T15:10:04.903Z,46.17
2023-04-12T15:13:08.358Z,44.90
2023-04-12T15:16:15.024Z,43.72
2023-04-12T15:19:22.311Z,46.03
2023-04-12T15:22:26.498Z,42.42
2023-04-12T15:25:30.961Z,49.15
2023-04-12T15:28:34.774Z,51.42
2023-04-12T15:31:39.652Z,45.67
2023-04-12T15:34:43.560Z,47.53
2023-04-12T15:37:48.028Z,46.10
2023-04-12T15:40:56.341Z,38.83
2023-04-12T15:43:59.896Z,39.72
2023-04-12T15:47:11.069Z,37.20
2023-04-12T15:50:15.349Z,37.95
2023-04-12T15:53:20.307Z,40.42
2023-04-12T15:56:25.533Z,36.65
2023-04-12T15:59:29.972Z,39.35
2023-04-12T16:02:35.041Z,35.30
2023-04-12T16:05:38.486Z,32.05
2023-04-12T16:08:41.958Z,36.13
2023-04-12T16:11:46.616Z,36.67
2023-04-12T16:14:51.341Z,39.80
2023-04-12T16:17:56.788Z,38.22
2023-04-12T16:21:00.185Z,35.65
2023-04-12T16:24:03.654Z,38.47
2023-04-12T16:27:07.141Z,45.47
2023-04-12T16:30:12.032Z,50.72
2023-04-12T16:33:17.390Z,47.30
2023-04-12T16:36:23.509Z,48.67
2023-04-12T16:39:29.149Z,40.22
2023-04-12T16:42:32.634Z,42.08
2023-04-12T16:45:36.317Z,37.53
2023-04-12T16:48:42.156Z,39.80
2023-04-12T16:51:45.522Z,45.00
2023-04-12T16:54:48.776Z,40.83
2023-04-12T16:57:53.727Z,38.97
2023-04-12T17:00:57.878Z,42.95
2023-04-12T17:04:03.686Z,41.25
2023-04-12T17:07:08.049Z,40.90
2023-04-12T17:10:12.124Z,42.10
2023-04-12T17:13:19.422Z,44.20
2023-04-12T17:16:24.962Z,44.45
2023-04-12T17:19:29.791Z,44.72
2023-04-12T17:22:33.357Z,52.95
2023-04-12T17:25:37.824Z,58.88
2023-04-12T17:28:45.134Z,48.53
2023-04-12T17:31:54.323Z,48.97
2023-04-12T17:35:00.156Z,52.00
2023-04-12T17:38:03.542Z,50.67
2023-04-12T17:41:10.041Z,54.65
2023-04-12T17:44:13.476Z,57.95
2023-04-12T17:47:17.339Z,70.70
2023-04-12T17:50:22.757Z,78.63
2023-04-12T17:53:26.078Z,148.45
2023-04-12T17:56:29.943Z,123.03
2023-04-12T17:59:33.950Z,96.30
2023-04-12T18:02:38.190Z,87.18
2023-04-12T18:05:46.104Z,79.03
2023-04-12T18:08:51.285Z,73.50
2023-04-12T18:11:57.155Z,78.03
2023-04-12T18:15:03.926Z,92.63
2023-04-12T18:18:08.100Z,81.50
2023-04-12T18:21:14.665Z,84.07
2023-04-12T18:24:18.034Z,86.32
2023-04-12T18:27:22.160Z,90.80
2023-04-12T18:30:25.897Z,102.05
2023-04-12T18:33:30.288Z,216.25
2023-04-12T18:36:36.889Z,137.55
2023-04-12T18:39:42.912Z,118.15
2023-04-12T18:42:46.624Z,266.67
2023-04-12T18:45:50.764Z,210.80
2023-04-12T18:48:54.835Z,201.15
2023-04-12T18:52:00.433Z,124.20
2023-04-12T18:55:03.925Z,192.63
2023-04-12T18:58:08.148Z,81.95
2023-04-12T19:01:12.345Z,75.63
2023-04-12T19:04:16.909Z,85.63
2023-04-12T19:07:22.259Z,96.15
2023-04-12T19:10:30.501Z,68.47
2023-04-12T19:13:34.281Z,72.55
2023-04-12T19:16:38.502Z,68.25
2023-04-12T19:19:42.391Z,72.90
2023-04-12T19:22:48.632Z,74.05
2023-04-12T19:25:53.009Z,72.75
2023-04-12T19:28:58.868Z,69.43
2023-04-12T19:32:07.299Z,65.13
2023-04-12T19:35:15.156Z,65.13
2023-04-12T19:38:21.316Z,65.65
2023-04-12T19:41:24.798Z,63.88
2023-04-12T19:44:29.328Z,64.13
2023-04-12T19:47:34.579Z,58.13
2023-04-12T19:50:39.805Z,61.38
2023-04-12T19:53:46.295Z,64.72
2023-04-12T19:56:50.165Z,63.08
2023-04-12T19:59:53.670Z,64.75
2023-04-12T20:02:57.297Z,60.72
2023-04-12T20:06:04.254Z,70.35
2023-04-12T20:09:09.099Z,64.03
2023-04-12T20:12:12.356Z,73.00
2023-04-12T20:15:15.789Z,71.35
2023-04-12T20:18:19.176Z,76.93
2023-04-12T20:21:23.329Z,71.18
2023-04-12T20:24:30.021Z,70.15
2023-04-12T20:27:33.664Z,71.80
2023-04-12T20:30:37.544Z,72.68
2023-04-12T20:33:42.201Z,71.95
2023-04-12T20:36:45.477Z,72.07
2023-04-12T20:39:51.497Z,75.32
2023-04-12T20:42:55.826Z,76.55
2023-04-12T20:46:00.890Z,76.78
2023-04-12T20:49:06.598Z,82.25
2023-04-12T20:52:10.053Z,82.63
2023-04-12T20:55:15.177Z,83.30
2023-04-12T20:58:19.312Z,85.18
2023-04-12T21:01:23.945Z,91.18
2023-04-12T21:04:28.451Z,89.03
2023-04-12T21:07:32.233Z,79.20
2023-04-12T21:10:36.825Z,81.82
2023-04-12T21:13:40.732Z,77.55
2023-04-12T21:16:44.554Z,82.55
2023-04-12T21:19:50.083Z,80.00
2023-04-12T21:22:53.757Z,79.80
2023-04-12T21:25:58.514Z,72.80
2023-04-12T21:29:02.450Z,77.43
2023-04-12T21:32:06.749Z,77.78
2023-04-12T21:35:11.145Z,72.25
2023-04-12T21:38:14.485Z,74.45
2023-04-12T21:41:19.118Z,75.47
2023-04-12T21:44:22.325Z,67.90
2023-04-12T21:47:25.645Z,69.35
2023-04-12T21:50:28.803Z,75.53
2023-04-12T21:53:32.030Z,67.13
2023-04-12T21:56:36.594Z,69.07
2023-04-12T21:59:41.698Z,67.03
2023-04-12T22:02:44.985Z,68.78
2023-04-12T22:06:00.844Z,73.20
2023-04-12T22:09:07.098Z,68.47
2023-04-12T22:12:12.409Z,69.65
2023-04-12T22:15:16.412Z,69.60
2023-04-12T22:18:20.525Z,70.57
2023-04-12T22:21:23.861Z,71.75
2023-04-12T22:24:27.070Z,67.30
2023-04-12T22:27:31.741Z,70.47
2023-04-12T22:30:36.349Z,70.55
2023-04-12T22:33:40.011Z,76.20
2023-04-12T22:36:43.189Z,67.55
2023-04-12T22:39:51.370Z,71.13
2023-04-12T22:42:56.092Z,73.78
2023-04-12T22:46:02.107Z,71.25
2023-04-12T22:49:05.780Z,66.75
2023-04-12T22:52:09.091Z,69.85
2023-04-12T22:55:14.301Z,69.15
2023-04-12T22:58:19.617Z,66.95
2023-04-12T23:01:22.842Z,67.53
2023-04-12T23:04:26.048Z,66.07
2023-04-12T23:07:29.920Z,66.38
2023-04-12T23:10:33.712Z,71.63
2023-04-12T23:13:38.338Z,74.00
2023-04-12T23:16:44.052Z,68.88
2023-04-12T23:19:47.318Z,69.47
2023-04-12T23:22:57.482Z,66.10
2023-04-12T23:26:01.498Z,68.47
2023-04-12T23:29:06.401Z,67.95
2023-04-12T23:32:17.520Z,71.13
2023-04-12T23:35:20.754Z,76.90
2023-04-12T23:38:32.151Z,75.13
2023-04-12T23:41:36.135Z,74.47
2023-04-12T23:44:41.121Z,75.40
2023-04-12T23:47:44.396Z,78.97
2023-04-12T23:50:48.229Z,68.63
2023-04-12T23:53:51.670Z,73.05
2023-04-12T23:56:54.868Z,67.85
2023-04-12T23:59:59.469Z,67.80
